Time;durP1;ratioP1;P1;durP2;ratioP2;P2;SDS_P1;SDS_P2;PMS_P1;PMS_P2;Temp;Humidity;BMP_temperature;BMP_pressure;BME280_temperature;BME280_humidity;BME280_pressure;Samples;Min_cycle;Max_cycle;Signal;HPM_P1;HPM_P2
2022/10/23 00:01:40;;;;;;;8.37;5.50;;;14.10;99.90;;;14.48;nan;100652.19;4976143;28;21243;-65
2022/10/23 00:04:20;;;;;;;6.50;4.27;;;14.00;99.90;;;14.47;nan;100644.44;4975996;28;20950;-64
2022/10/23 00:06:48;;;;;;;11.00;5.03;;;14.00;99.90;;;14.51;nan;100648.47;4960438;28;20684;-65
2022/10/23 00:09:19;;;;;;;8.93;4.63;;;14.00;99.90;;;14.47;nan;100647.91;4975218;28;20622;-65
2022/10/23 00:11:47;;;;;;;8.27;4.87;;;14.00;99.90;;;14.41;nan;100632.72;4975622;28;20651;-65
2022/10/23 00:14:16;;;;;;;13.27;5.33;;;14.00;99.90;;;14.51;nan;100624.84;4974692;28;20641;-65
2022/10/23 00:16:43;;;;;;;7.53;4.80;;;14.00;99.90;;;14.51;nan;100628.28;4958931;28;20653;-64
2022/10/23 00:19:11;;;;;;;5.37;4.60;;;14.00;99.90;;;14.52;nan;100627.31;4993153;28;20635;-66
2022/10/23 00:21:38;;;;;;;5.00;4.50;;;14.00;99.90;;;14.45;nan;100631.47;4994136;28;20680;-65
2022/10/23 00:24:07;;;;;;;6.50;4.80;;;14.00;99.90;;;14.55;nan;100615.72;4992677;28;20676;-65
2022/10/23 00:26:37;;;;;;;5.23;3.73;;;14.00;99.90;;;14.52;nan;100608.13;4994054;28;20676;-64
2022/10/23 00:29:04;;;;;;;6.93;4.73;;;14.00;99.90;;;14.47;nan;100599.81;4991651;28;21182;-65
2022/10/23 00:31:31;;;;;;;7.47;4.47;;;14.00;99.90;;;14.51;nan;100595.97;4976800;28;20646;-65
2022/10/23 00:33:59;;;;;;;12.60;4.77;;;14.00;99.90;;;14.56;nan;100599.00;4975255;28;20643;-65
2022/10/23 00:36:26;;;;;;;4.33;3.40;;;14.00;99.90;;;14.47;nan;100600.66;4992562;28;20638;-64
2022/10/23 00:38:53;;;;;;;6.53;4.10;;;14.00;99.90;;;14.49;nan;100608.38;4992852;28;20646;-65
2022/10/23 00:41:27;;;;;;;6.60;3.97;;;14.00;99.90;;;14.41;nan;100610.88;4992782;28;20646;-64
2022/10/23 00:44:30;;;;;;;14.00;3.83;;;14.00;99.90;;;14.46;nan;100608.69;4975283;28;20642;-64
2022/10/23 00:46:58;;;;;;;6.80;3.83;;;14.00;99.90;;;14.45;nan;100599.97;4993147;28;21011;-65
2022/10/23 00:49:25;;;;;;;6.17;4.17;;;14.00;99.90;;;14.43;nan;100606.31;4974157;28;20642;-66
2022/10/23 00:52:03;;;;;;;7.73;4.70;;;14.00;99.90;;;14.39;nan;100600.50;4970413;28;20650;-65
2022/10/23 00:54:37;;;;;;;11.47;4.80;;;13.90;99.90;;;14.41;nan;100609.09;4992046;28;20638;-64
2022/10/23 00:57:07;;;;;;;6.63;4.07;;;13.90;99.90;;;14.40;nan;100593.44;4976024;28;20749;-64
2022/10/23 00:59:35;;;;;;;7.17;3.93;;;13.90;99.90;;;14.35;nan;100582.53;4974560;28;21019;-65
2022/10/23 01:02:02;;;;;;;6.90;4.17;;;13.90;99.90;;;14.38;nan;100572.59;4993501;28;20656;-64
2022/10/23 01:04:30;;;;;;;5.67;4.40;;;13.90;99.90;;;14.32;nan;100578.38;4974141;28;20635;-64
2022/10/23 01:07:07;;;;;;;9.80;4.37;;;13.90;99.90;;;14.41;nan;100577.59;4976292;28;20681;-65
2022/10/23 01:09:56;;;;;;;5.87;3.60;;;13.90;99.90;;;14.42;nan;100566.09;4992556;28;20700;-64
2022/10/23 01:12:57;;;;;;;8.07;3.93;;;13.90;99.90;;;14.48;nan;100575.25;4959651;28;20646;-64
2022/10/23 01:15:37;;;;;;;4.10;3.30;;;13.90;99.90;;;14.40;nan;100577.69;4975982;28;20607;-65
2022/10/23 01:18:08;;;;;;;8.20;5.00;;;13.90;99.90;;;14.35;nan;100591.22;4974984;28;21248;-64
2022/10/23 01:20:48;;;;;;;6.07;3.77;;;13.90;99.90;;;14.35;nan;100578.09;4973789;28;20635;-65
2022/10/23 01:23:52;;;;;;;6.87;4.43;;;13.90;99.90;;;14.33;nan;100579.22;4974459;28;20631;-65
2022/10/23 01:26:38;;;;;;;5.57;3.50;;;13.90;99.90;;;14.32;nan;100581.00;4955233;28;20659;-65
2022/10/23 01:29:30;;;;;;;5.70;4.20;;;13.80;99.90;;;14.34;nan;100567.75;4959143;28;20635;-65
2022/10/23 01:32:08;;;;;;;4.47;3.77;;;13.80;99.90;;;14.24;nan;100582.63;4975097;28;20650;-65
2022/10/23 01:34:50;;;;;;;7.37;4.30;;;13.80;99.90;;;14.32;nan;100580.19;4958249;28;20642;-65
2022/10/23 01:37:31;;;;;;;8.33;4.03;;;13.80;99.90;;;14.27;nan;100579.75;4975107;28;20664;-65
2022/10/23 01:40:03;;;;;;;3.67;3.10;;;13.80;99.90;;;14.21;nan;100577.63;4973825;28;20631;-65
2022/10/23 01:42:38;;;;;;;5.03;3.67;;;13.70;99.90;;;14.19;nan;100585.63;4958844;28;21007;-66
2022/10/23 01:45:18;;;;;;;4.07;3.70;;;13.70;99.90;;;14.15;nan;100576.38;4973658;28;20634;-66
2022/10/23 01:47:48;;;;;;;5.63;4.00;;;13.70;99.90;;;14.16;nan;100574.59;4958363;28;20666;-65
2022/10/23 01:50:17;;;;;;;5.00;4.27;;;13.70;99.90;;;14.10;nan;100570.69;4973621;28;21198;-65
2022/10/23 01:52:44;;;;;;;4.73;3.17;;;13.70;99.90;;;14.09;nan;100570.84;4991807;28;21222;-65
2022/10/23 01:55:13;;;;;;;4.23;3.70;;;13.70;99.90;;;13.90;nan;100554.09;4973509;28;21206;-65
2022/10/23 01:57:43;;;;;;;5.47;3.60;;;13.60;99.90;;;13.95;nan;100540.56;4974156;28;20984;-65
2022/10/23 02:00:14;;;;;;;4.50;3.47;;;13.60;99.90;;;13.94;nan;100537.13;4973508;28;21247;-65
2022/10/23 02:02:44;;;;;;;4.50;3.60;;;13.60;99.90;;;13.95;nan;100536.13;4974629;28;20655;-65
2022/10/23 02:05:30;;;;;;;6.33;3.10;;;13.50;99.90;;;13.91;nan;100540.00;4972980;28;20643;-65
2022/10/23 02:07:57;;;;;;;4.43;3.50;;;13.50;99.90;;;13.91;nan;100541.78;4973226;28;20674;-65
2022/10/23 02:10:41;;;;;;;4.53;3.37;;;13.50;99.90;;;13.91;nan;100545.25;4971653;28;20642;-65
2022/10/23 02:13:44;;;;;;;4.30;3.33;;;13.50;99.90;;;13.95;nan;100544.00;4973303;28;20662;-66
2022/10/23 02:16:10;;;;;;;4.70;3.43;;;13.50;99.90;;;13.86;nan;100547.41;4973388;28;20632;-65
2022/10/23 02:18:51;;;;;;;5.63;3.37;;;13.50;99.90;;;13.89;nan;100539.31;4990739;28;20643;-65
2022/10/23 02:21:51;;;;;;;5.73;3.90;;;13.40;99.90;;;13.91;nan;100541.78;4990506;28;20670;-65
2022/10/23 02:24:31;;;;;;;5.87;3.83;;;13.40;99.90;;;13.89;nan;100535.84;4981162;28;20704;-65
2022/10/23 02:27:06;;;;;;;4.00;3.47;;;13.40;99.90;;;13.87;nan;100546.47;4974075;28;20673;-65
2022/10/23 02:29:44;;;;;;;4.40;3.60;;;13.40;99.90;;;13.86;nan;100555.28;4973214;28;20644;-65
2022/10/23 02:32:13;;;;;;;3.70;3.40;;;13.40;99.90;;;13.83;nan;100554.75;4973385;28;20650;-65
2022/10/23 02:34:40;;;;;;;6.63;3.40;;;13.40;99.90;;;13.82;nan;100545.22;4972264;28;21194;-66
2022/10/23 02:37:07;;;;;;;10.03;3.90;;;13.40;99.90;;;13.80;nan;100544.50;4990874;28;20643;-66
2022/10/23 02:39:34;;;;;;;6.40;4.00;;;13.40;99.90;;;13.79;nan;100537.63;4988975;28;20642;-65
2022/10/23 02:42:28;;;;;;;5.27;3.30;;;13.30;99.90;;;13.68;nan;100541.16;4990690;28;20667;-65
2022/10/23 02:45:23;;;;;;;5.93;3.97;;;13.30;99.90;;;13.75;nan;100534.44;4990758;28;20634;-66
2022/10/23 02:48:18;;;;;;;5.10;3.30;;;13.30;99.90;;;13.66;nan;100527.34;4974514;28;20654;-66
2022/10/23 02:51:06;;;;;;;6.43;4.10;;;13.20;99.90;;;13.67;nan;100523.75;4972645;28;20638;-66
2022/10/23 02:53:59;;;;;;;4.93;3.90;;;13.20;99.90;;;13.61;nan;100532.16;4969871;28;21026;-66
2022/10/23 02:56:52;;;;;;;6.07;3.50;;;13.20;99.90;;;13.71;nan;100534.84;4986312;28;20700;-65
2022/10/23 02:59:30;;;;;;;4.10;3.00;;;13.20;99.90;;;13.69;nan;100518.41;4973765;28;20641;-65
2022/10/23 03:02:25;;;;;;;5.47;2.87;;;13.30;99.90;;;13.66;nan;100513.41;4973981;28;20662;-65
2022/10/23 03:04:54;;;;;;;5.73;3.90;;;13.20;99.90;;;13.59;nan;100504.41;4972110;28;21198;-65
2022/10/23 03:07:24;;;;;;;4.60;3.47;;;13.20;99.90;;;13.55;nan;100496.00;4973161;28;20671;-66
2022/10/23 03:09:51;;;;;;;4.90;3.80;;;13.20;99.90;;;13.59;nan;100499.16;4973400;28;20650;-66
2022/10/23 03:12:18;;;;;;;4.20;3.47;;;13.20;99.90;;;13.59;nan;100497.38;4990266;28;20658;-65
2022/10/23 03:14:45;;;;;;;5.30;3.90;;;13.20;99.90;;;13.59;nan;100507.88;4973616;28;20973;-65
2022/10/23 03:17:12;;;;;;;4.73;3.20;;;13.20;99.90;;;13.65;nan;100496.84;4972992;28;20645;-65
2022/10/23 03:19:39;;;;;;;5.20;3.70;;;13.20;99.90;;;13.58;nan;100500.97;4989528;28;21256;-65
2022/10/23 03:22:06;;;;;;;3.93;3.37;;;13.20;99.90;;;13.56;nan;100499.44;4990135;28;20642;-66
2022/10/23 03:24:33;;;;;;;3.60;3.30;;;13.20;99.90;;;13.51;nan;100497.22;4990857;28;20641;-65
2022/10/23 03:26:59;;;;;;;6.27;4.00;;;13.10;99.90;;;13.55;nan;100501.22;4991286;28;20667;-67
2022/10/23 03:29:26;;;;;;;4.60;3.43;;;13.10;99.90;;;13.58;nan;100498.34;4990372;28;20696;-65
2022/10/23 03:31:54;;;;;;;3.37;3.07;;;13.10;99.90;;;13.62;nan;100501.53;4991473;28;21218;-65
2022/10/23 03:34:21;;;;;;;4.53;3.83;;;13.10;99.90;;;13.51;nan;100494.59;4989908;28;20641;-65
2022/10/23 03:36:48;;;;;;;5.27;3.40;;;13.10;99.90;;;13.44;nan;100488.22;4990755;28;20629;-66
2022/10/23 03:39:15;;;;;;;3.97;3.03;;;13.10;99.90;;;13.40;nan;100492.06;4989802;28;21222;-64
2022/10/23 03:41:42;;;;;;;3.80;3.27;;;13.00;99.90;;;13.36;nan;100490.66;4974479;28;20663;-65
2022/10/23 03:44:09;;;;;;;5.77;3.73;;;13.00;99.90;;;13.34;nan;100492.59;4993011;28;20680;-65
2022/10/23 03:46:36;;;;;;;3.93;3.30;;;13.00;99.90;;;13.35;nan;100490.81;4993245;28;21246;-65
2022/10/23 03:49:03;;;;;;;4.37;3.40;;;13.00;99.90;;;13.34;nan;100492.59;4993979;28;20619;-65
2022/10/23 03:51:30;;;;;;;18.03;4.93;;;12.90;99.90;;;13.35;nan;100503.91;5009934;23;20664;-65
2022/10/23 03:53:57;;;;;;;4.30;3.60;;;12.90;99.90;;;13.45;nan;100510.84;5012667;28;21034;-64
2022/10/23 03:56:24;;;;;;;4.07;3.47;;;12.90;99.90;;;13.41;nan;100509.47;4997511;28;20606;-64
2022/10/23 03:58:51;;;;;;;4.07;3.67;;;12.90;99.90;;;13.47;nan;100514.16;4996254;28;20602;-65
2022/10/23 04:01:18;;;;;;;5.40;3.73;;;13.00;99.90;;;13.50;nan;100519.13;5013523;28;20638;-64
2022/10/23 04:03:44;;;;;;;4.30;3.40;;;13.00;99.90;;;13.44;nan;100524.09;5013016;28;20626;-65
2022/10/23 04:06:11;;;;;;;4.10;3.70;;;13.00;99.90;;;13.45;nan;100523.97;5013503;28;20640;-64
2022/10/23 04:08:38;;;;;;;4.33;3.83;;;13.00;99.90;;;13.45;nan;100516.09;5012871;28;21249;-64
2022/10/23 04:11:05;;;;;;;5.37;3.57;;;13.00;99.90;;;13.40;nan;100515.66;5012455;28;20683;-64
2022/10/23 04:13:32;;;;;;;4.57;3.50;;;12.90;99.90;;;13.39;nan;100506.16;5013268;28;20639;-65
2022/10/23 04:15:59;;;;;;;6.70;4.00;;;12.90;99.90;;;13.33;nan;100496.16;5012194;28;20638;-64
2022/10/23 04:18:26;;;;;;;4.63;3.67;;;12.90;99.90;;;13.31;nan;100500.69;5013403;28;20621;-64
2022/10/23 04:20:53;;;;;;;6.30;3.20;;;12.80;99.90;;;13.31;nan;100503.31;4991603;28;21011;-65
2022/10/23 04:23:20;;;;;;;4.60;3.77;;;12.80;99.90;;;13.19;nan;100497.34;5002631;28;20654;-65
2022/10/23 04:25:47;;;;;;;3.70;3.40;;;12.80;99.90;;;13.12;nan;100490.97;4991905;28;20615;-65
2022/10/23 04:28:18;;;;;;;4.53;3.93;;;12.70;99.90;;;13.26;nan;100481.94;5005263;28;20650;-65
2022/10/23 04:30:45;;;;;;;3.97;3.43;;;12.80;99.90;;;13.18;nan;100482.56;5013314;28;21187;-64
2022/10/23 04:33:12;;;;;;;3.80;3.50;;;12.70;99.90;;;13.14;nan;100485.59;5011906;28;20656;-64
2022/10/23 04:35:39;;;;;;;4.40;3.50;;;12.70;99.90;;;13.10;nan;100481.56;5013223;28;20633;-66
2022/10/23 04:38:06;;;;;;;4.60;4.03;;;12.70;99.90;;;13.11;nan;100491.09;4993880;28;20667;-65
2022/10/23 04:40:33;;;;;;;5.60;4.07;;;12.60;99.90;;;13.02;nan;100494.44;5012313;28;20636;-64
2022/10/23 04:43:00;;;;;;;5.47;4.10;;;12.60;99.90;;;13.09;nan;100486.00;5011711;28;20646;-65
2022/10/23 04:45:27;;;;;;;6.37;4.20;;;12.60;99.90;;;13.10;nan;100482.41;4975514;28;21046;-66
2022/10/23 04:47:55;;;;;;;12.53;6.67;;;12.70;99.90;;;13.18;nan;100487.81;5001866;28;20674;-64
2022/10/23 04:50:22;;;;;;;8.00;5.63;;;12.70;99.90;;;13.15;nan;100489.88;5012009;28;20625;-65
2022/10/23 04:52:56;;;;;;;17.77;8.87;;;12.70;99.90;;;13.12;nan;100484.88;5012042;28;20676;-64
2022/10/23 04:55:26;;;;;;;12.30;6.47;;;12.70;99.90;;;13.09;nan;100478.16;5012700;28;20617;-64
2022/10/23 04:57:53;;;;;;;12.13;5.87;;;12.70;99.90;;;13.11;nan;100489.31;5012470;28;20628;-64
2022/10/23 05:00:20;;;;;;;6.63;4.97;;;12.70;99.90;;;13.14;nan;100501.31;5011550;28;20692;-65
2022/10/23 05:02:47;;;;;;;13.87;5.40;;;12.70;99.90;;;13.22;nan;100502.31;5013141;28;20655;-64
2022/10/23 05:05:14;;;;;;;11.43;5.07;;;12.70;99.90;;;13.27;nan;100512.41;5011664;28;20630;-64
2022/10/23 05:07:41;;;;;;;8.20;4.27;;;12.80;99.90;;;13.28;nan;100503.59;5011924;28;20662;-64
2022/10/23 05:10:08;;;;;;;6.77;4.17;;;12.80;99.90;;;13.32;nan;100502.38;5010543;28;20995;-64
2022/10/23 05:12:35;;;;;;;6.80;4.27;;;12.80;99.90;;;13.33;nan;100504.03;5009126;28;20656;-64
2022/10/23 05:15:03;;;;;;;6.93;4.23;;;12.80;99.90;;;13.31;nan;100505.94;5011032;28;21255;-65
2022/10/23 05:17:36;;;;;;;6.47;4.70;;;12.80;99.90;;;13.26;nan;100496.81;4994544;28;21195;-64
2022/10/23 05:20:11;;;;;;;7.00;5.00;;;12.80;99.90;;;13.27;nan;100491.44;5003405;28;20642;-64
2022/10/23 05:22:40;;;;;;;11.83;5.60;;;12.80;99.90;;;13.21;nan;100474.47;5001471;28;20649;-65
2022/10/23 05:25:08;;;;;;;9.57;4.57;;;12.70;99.90;;;13.19;nan;100475.56;5011435;28;20978;-65
2022/10/23 05:27:35;;;;;;;9.43;4.47;;;12.70;99.90;;;13.17;nan;100472.25;5012118;28;21279;-64
2022/10/23 05:30:03;;;;;;;6.83;4.50;;;12.70;99.90;;;13.17;nan;100465.22;5007541;28;21167;-65
2022/10/23 05:32:32;;;;;;;10.37;5.50;;;12.70;99.90;;;13.13;nan;100461.19;5003383;28;21195;-65
2022/10/23 05:35:10;;;;;;;7.63;4.80;;;12.70;99.90;;;13.17;nan;100457.34;4996864;28;21204;-65
2022/10/23 05:37:41;;;;;;;6.33;4.50;;;12.60;99.90;;;13.06;nan;100460.06;4993595;28;21146;-64
2022/10/23 05:40:08;;;;;;;6.97;4.50;;;12.60;99.90;;;13.08;nan;100467.78;5010022;28;20650;-65
2022/10/23 05:42:35;;;;;;;9.80;4.40;;;12.60;99.90;;;13.11;nan;100462.28;5010147;28;20735;-65
2022/10/23 05:45:06;;;;;;;7.07;4.83;;;12.60;99.90;;;13.10;nan;100463.22;5011365;28;20618;-65
2022/10/23 05:47:33;;;;;;;5.97;4.30;;;12.60;99.90;;;13.10;nan;100463.22;5005032;28;20727;-65
2022/10/23 05:50:00;;;;;;;8.83;5.13;;;12.60;99.90;;;13.10;nan;100458.81;5010814;28;20971;-64
2022/10/23 05:52:27;;;;;;;8.73;4.77;;;12.60;99.90;;;13.14;nan;100455.00;5001786;28;20692;-66
2022/10/23 05:54:54;;;;;;;6.40;4.80;;;12.60;99.90;;;13.17;nan;100453.91;5007503;28;21012;-65
2022/10/23 05:57:20;;;;;;;6.90;4.90;;;12.60;99.90;;;13.09;nan;100457.19;5010887;28;20699;-64
2022/10/23 05:59:47;;;;;;;7.33;5.60;;;12.60;99.90;;;13.13;nan;100452.50;5010294;28;21056;-65
2022/10/23 06:02:14;;;;;;;7.87;5.10;;;12.60;99.90;;;13.24;nan;100444.56;5010791;28;20664;-64
2022/10/23 06:04:41;;;;;;;8.30;5.00;;;12.70;99.90;;;13.15;nan;100440.09;5009687;28;20673;-65
2022/10/23 06:07:08;;;;;;;7.90;5.60;;;12.70;99.90;;;13.10;nan;100432.63;5002765;28;20674;-65
2022/10/23 06:09:35;;;;;;;8.50;5.13;;;12.60;99.90;;;13.16;nan;100441.78;4990940;28;21178;-65
2022/10/23 06:12:02;;;;;;;6.70;5.27;;;12.60;99.90;;;13.06;nan;100443.50;4990767;28;20689;-65
2022/10/23 06:14:29;;;;;;;8.90;5.33;;;12.60;99.90;;;13.07;nan;100432.06;5008545;28;20993;-64
2022/10/23 06:16:56;;;;;;;9.30;5.27;;;12.60;99.90;;;13.07;nan;100438.16;5011063;28;20628;-64
2022/10/23 06:19:23;;;;;;;6.73;5.43;;;12.60;99.90;;;13.16;nan;100436.53;5009695;28;20648;-65
2022/10/23 06:21:50;;;;;;;8.17;5.40;;;12.70;99.90;;;13.30;nan;100438.78;5010920;28;20656;-64
2022/10/23 06:24:17;;;;;;;5.30;4.80;;;12.80;99.90;;;13.34;nan;100432.31;5010753;28;20626;-64
2022/10/23 06:26:44;;;;;;;6.23;4.83;;;12.80;99.90;;;13.42;nan;100448.22;5011059;28;21036;-65
2022/10/23 06:29:11;;;;;;;6.37;4.70;;;12.90;99.90;;;13.58;nan;100432.81;5010171;28;20680;-64
2022/10/23 06:31:38;;;;;;;5.87;4.87;;;12.90;99.90;;;13.70;nan;100425.66;4993306;28;20669;-65
2022/10/23 06:34:05;;;;;;;6.70;5.50;;;13.00;99.90;;;13.74;nan;100427.03;5006900;28;20661;-64
2022/10/23 06:36:32;;;;;;;8.20;6.10;;;13.10;99.90;;;13.76;nan;100425.09;5001812;28;20627;-65
2022/10/23 06:38:59;;;;;;;12.80;5.30;;;13.10;99.90;;;13.81;nan;100430.78;5005294;28;20711;-64
2022/10/23 06:41:26;;;;;;;8.53;5.87;;;13.20;99.90;;;13.94;nan;100428.75;5010120;28;20634;-64
2022/10/23 06:43:53;;;;;;;4.60;4.13;;;13.30;99.90;;;14.12;nan;100429.72;5009587;28;20637;-64
2022/10/23 06:46:21;;;;;;;5.27;4.70;;;13.40;99.90;;;14.22;nan;100442.84;4992734;28;20630;-64
2022/10/23 06:48:48;;;;;;;10.23;6.53;;;13.50;99.90;;;14.34;nan;100439.97;5006157;28;20674;-65
2022/10/23 06:51:16;;;;;;;6.70;5.80;;;13.60;99.90;;;14.44;nan;100434.69;5009510;28;20671;-64
2022/10/23 06:53:44;;;;;;;8.10;5.97;;;13.70;99.90;;;14.44;nan;100426.81;4991955;28;20638;-64
2022/10/23 06:56:11;;;;;;;9.80;5.47;;;13.80;99.90;;;14.46;nan;100436.22;5009226;28;20634;-64
2022/10/23 06:58:39;;;;;;;7.03;5.30;;;13.80;99.90;;;14.56;nan;100433.59;5008671;28;20641;-66
2022/10/23 07:01:10;;;;;;;7.20;5.20;;;13.80;99.90;;;14.70;nan;100431.38;5008600;28;21186;-65
2022/10/23 07:03:38;;;;;;;6.73;6.03;;;13.90;99.90;;;14.78;nan;100443.78;5009680;28;20646;-64
2022/10/23 07:06:07;;;;;;;8.37;5.70;;;14.00;99.90;;;14.97;nan;100430.59;4992982;28;20630;-65
2022/10/23 07:08:34;;;;;;;7.70;6.07;;;14.00;99.90;;;15.06;nan;100435.00;5009881;28;20665;-65
2022/10/23 07:11:07;;;;;;;8.43;6.30;;;14.10;99.90;;;15.26;nan;100444.47;5010102;28;20638;-64
2022/10/23 07:13:37;;;;;;;8.13;5.40;;;14.20;99.90;;;15.44;nan;100458.53;5010105;28;21030;-64
2022/10/23 07:16:20;;;;;;;6.37;4.50;;;14.40;99.90;;;15.75;nan;100442.47;4991898;28;20711;-65
2022/10/23 07:18:48;;;;;;;12.17;7.17;;;14.60;99.90;;;;;;5007698;28;20641;-66
2022/10/23 07:21:15;;;;;;;11.10;6.80;;;14.90;99.90;;;;;;5005210;28;20654;-64
2022/10/23 07:23:42;;;;;;;10.40;6.30;;;15.10;99.90;;;;;;5013570;28;20614;-65
2022/10/23 07:26:14;;;;;;;9.43;6.80;;;15.20;99.90;;;;;;5013176;28;20641;-66
2022/10/23 07:28:43;;;;;;;6.30;5.70;;;15.20;99.90;;;;;;5010478;28;20689;-65
2022/10/23 07:31:10;;;;;;;6.70;5.50;;;15.20;99.90;;;;;;5012238;28;21205;-65
2022/10/23 07:33:37;;;;;;;8.97;6.27;;;15.20;99.90;;;;;;5014243;28;20646;-66
2022/10/23 07:36:06;;;;;;;12.07;7.33;;;15.20;99.90;;;;;;5013212;28;20661;-65
2022/10/23 07:38:34;;;;;;;12.50;8.20;;;15.10;99.90;;;;;;5011381;28;20637;-65
2022/10/23 07:41:01;;;;;;;11.60;7.50;;;15.00;99.90;;;;;;5014287;28;20672;-65
2022/10/23 07:43:28;;;;;;;10.13;6.77;;;14.80;99.90;;;;;;5013457;28;20661;-65
2022/10/23 07:45:55;;;;;;;13.50;7.77;;;14.80;99.90;;;;;;5014271;28;20661;-65
2022/10/23 07:48:22;;;;;;;12.53;6.87;;;14.70;99.90;;;;;;5012948;28;20704;-64
2022/10/23 07:50:50;;;;;;;13.30;7.10;;;14.60;99.90;;;;;;5001516;28;20634;-66
2022/10/23 07:53:19;;;;;;;12.57;6.30;;;14.50;99.90;;;;;;4993205;28;20692;-65
2022/10/23 07:55:57;;;;;;;8.97;7.10;;;14.50;99.90;;;;;;5009493;28;20629;-65
2022/10/23 07:58:25;;;;;;;13.00;7.70;;;14.60;99.90;;;;;;5010874;28;20645;-65
2022/10/23 08:01:02;;;;;;;17.10;9.10;;;14.80;99.90;;;;;;5010467;28;20687;-65
2022/10/23 08:03:32;;;;;;;18.97;9.47;;;14.90;99.90;;;;;;5010333;28;20695;-65
2022/10/23 08:05:59;;;;;;;14.57;7.97;;;15.10;99.90;;;;;;5012344;28;20645;-64
2022/10/23 08:08:26;;;;;;;12.67;7.90;;;15.30;99.90;;;;;;5000438;28;20868;-66
2022/10/23 08:10:54;;;;;;;14.43;8.07;;;15.40;99.90;;;;;;4993183;28;21264;-64
2022/10/23 08:13:21;;;;;;;13.60;7.47;;;15.60;99.90;;;;;;5013257;28;20677;-65
2022/10/23 08:15:49;;;;;;;12.20;7.70;;;16.10;99.90;;;;;;5006395;28;20630;-65
2022/10/23 08:18:16;;;;;;;12.97;8.27;;;16.40;99.90;;;;;;5010627;28;20625;-65
2022/10/23 08:20:45;;;;;;;9.43;6.80;;;16.90;99.90;;;;;;5011093;28;21271;-65
2022/10/23 08:23:15;;;;;;;11.67;7.10;;;17.60;99.90;;;;;;5012937;28;20687;-66
2022/10/23 08:25:42;;;;;;;12.13;6.20;;;18.20;99.90;;;22.15;nan;100416.13;5012769;28;20668;-64
2022/10/23 08:28:09;;;;;;;8.90;6.30;;;19.10;99.90;;;24.34;nan;100409.75;5012477;28;20713;-64
2022/10/23 08:30:37;;;;;;;9.77;7.20;;;20.50;99.90;;;24.83;nan;100413.88;5011907;28;20644;-66
2022/10/23 08:33:07;;;;;;;12.60;6.77;;;21.30;99.90;;;25.02;nan;100413.03;5012217;28;20630;-63
2022/10/23 08:35:37;;;;;;;11.77;7.40;;;21.80;99.90;;;26.19;nan;100417.06;5012035;28;21188;-65
2022/10/23 08:38:05;;;;;;;13.23;8.00;;;22.60;99.90;;;27.72;nan;100419.66;5002905;28;20645;-66
2022/10/23 08:40:34;;;;;;;15.90;8.10;;;23.60;99.90;;;29.59;nan;100416.91;5012145;28;20614;-65
2022/10/23 08:43:05;;;;;;;9.87;7.90;;;24.70;99.90;;;31.15;nan;100414.19;5011449;28;21000;-67
2022/10/23 08:45:41;;;;;;;8.20;6.77;;;26.00;99.90;;;31.89;nan;100401.84;5013132;28;20640;-67
2022/10/23 08:48:32;;;;;;;11.80;7.27;;;26.90;98.80;;;31.92;nan;100410.22;4994289;28;20656;-66
2022/10/23 08:51:10;;;;;;;10.33;6.20;;;27.40;95.70;;;31.17;nan;100412.06;4995151;28;21046;-66
2022/10/23 08:53:51;;;;;;;8.33;6.27;;;27.40;94.90;;;30.00;nan;100405.88;4993560;28;20661;-64
2022/10/23 08:56:27;;;;;;;5.30;4.80;;;26.90;94.40;;;29.48;nan;100398.94;5008102;28;20630;-68
2022/10/23 08:59:19;;;;;;;6.40;4.80;;;26.40;94.70;;;30.90;nan;100392.28;5011412;28;20634;-67
2022/10/23 09:02:11;;;;;;;6.27;5.63;;;26.80;94.50;;;32.40;nan;100389.63;4994789;28;20656;-66
2022/10/23 09:04:40;;;;;;;13.70;4.43;;;27.70;93.10;;;33.42;nan;100393.50;5010128;28;20634;-65
2022/10/23 09:07:42;;;;;;;5.40;4.73;;;28.50;91.60;;;34.65;nan;100385.28;4994084;28;21066;-65
2022/10/23 09:10:23;;;;;;;5.67;4.90;;;29.50;89.60;;;33.96;nan;100391.22;5005520;28;20716;-65
2022/10/23 09:12:50;;;;;;;4.87;4.20;;;29.60;86.60;;;33.50;nan;100384.88;5011141;28;20651;-65
2022/10/23 09:15:27;;;;;;;7.77;5.60;;;29.70;83.40;;;31.31;nan;100379.06;5009359;28;20642;-65
2022/10/23 09:17:59;;;;;;;4.70;4.10;;;28.90;83.30;;;29.48;nan;100377.44;4988894;28;20618;-65
2022/10/23 09:20:33;;;;;;;8.80;5.77;;;27.70;85.40;;;28.46;nan;100376.25;4994042;28;20691;-66
2022/10/23 09:23:11;;;;;;;5.27;4.40;;;26.60;89.30;;;27.36;nan;100379.53;5011850;28;20645;-65
2022/10/23 09:25:41;;;;;;;3.27;3.00;;;25.70;91.10;;;28.39;nan;100370.16;5011202;28;20641;-65
2022/10/23 09:28:29;;;;;;;21.03;3.53;;;25.80;91.40;;;29.61;nan;100366.41;4976492;28;20664;-66
2022/10/23 09:31:11;;;;;;;25.87;14.83;;;26.30;91.50;;;30.64;nan;100346.09;5010423;28;20637;-65
2022/10/23 09:33:39;;;;;;;3.90;3.07;;;26.80;91.00;;;32.33;nan;100349.34;4992979;28;20652;-65
2022/10/23 09:36:14;;;;;;;4.97;3.57;;;27.80;89.70;;;32.00;nan;100361.25;4992969;28;20644;-66
2022/10/23 09:38:50;;;;;;;3.53;3.23;;;28.30;86.70;;;30.60;nan;100360.34;4992474;28;20629;-65
2022/10/23 09:41:34;;;;;;;7.40;5.33;;;27.90;86.70;;;29.28;nan;100361.75;5010455;28;20633;-66
2022/10/23 09:44:17;;;;;;;7.23;3.73;;;27.20;88.00;;;27.42;nan;100355.34;5010180;28;20634;-66
2022/10/23 09:46:52;;;;;;;4.40;2.40;;;26.30;89.00;;;26.82;nan;100356.22;5011173;28;21169;-65
2022/10/23 09:49:32;;;;;;;2.07;1.97;;;25.50;90.50;;;24.87;nan;100353.72;4992159;28;20650;-66
2022/10/23 09:52:10;;;;;;;1.93;1.83;;;24.30;91.80;;;23.44;nan;100341.94;4994419;28;20656;-67
2022/10/23 09:55:11;;;;;;;2.23;2.03;;;23.30;94.00;;;22.71;nan;100332.78;5010444;28;20641;-68
2022/10/23 09:57:43;;;;;;;3.53;2.37;;;22.40;96.80;;;21.82;nan;100322.00;4998112;28;20630;-68
2022/10/23 10:00:13;;;;;;;3.10;2.07;;;21.50;99.90;;;21.59;nan;100320.31;4992097;28;20633;-69
2022/10/23 10:02:43;;;;;;;2.33;2.13;;;21.00;99.90;;;21.56;nan;100327.84;5011168;28;20648;-69
2022/10/23 10:05:23;;;;;;;3.33;2.50;;;20.80;99.90;;;21.63;nan;100329.59;5009646;28;20630;-68
2022/10/23 10:08:31;;;;;;;2.93;2.60;;;20.70;99.90;;;21.68;nan;100326.34;5011418;28;20621;-68
2022/10/23 10:11:11;;;;;;;4.83;2.60;;;20.60;99.90;;;21.73;nan;100334.56;4985903;28;20639;-65
2022/10/23 10:14:20;;;;;;;2.60;2.43;;;20.50;99.90;;;21.81;nan;100336.25;4992795;28;20649;-67
2022/10/23 10:17:13;;;;;;;2.30;2.20;;;20.50;99.90;;;21.84;nan;100331.44;5010674;28;21006;-68
2022/10/23 10:19:56;;;;;;;5.33;2.60;;;20.50;99.90;;;21.33;nan;100325.38;5010784;28;20633;-65
2022/10/23 10:22:54;;;;;;;2.30;2.20;;;20.40;99.90;;;20.97;nan;100324.47;5005208;28;20679;-67
2022/10/23 10:25:32;;;;;;;3.90;2.37;;;20.20;99.90;;;20.65;nan;100335.44;4992351;28;20629;-69
2022/10/23 10:28:53;;;;;;;2.70;2.50;;;20.00;99.90;;;20.61;nan;100331.53;5009599;28;20617;-64
2022/10/23 10:31:47;;;;;;;8.70;2.80;;;19.80;99.90;;;20.63;nan;100333.00;4992697;28;20645;-65
2022/10/23 10:34:39;;;;;;;3.23;2.27;;;19.70;99.90;;;20.63;nan;100333.00;4993137;28;20630;-65
2022/10/23 10:37:32;;;;;;;3.20;2.23;;;19.70;99.90;;;20.48;nan;100336.63;5010356;28;20688;-66
2022/10/23 10:40:45;;;;;;;2.93;2.67;;;19.60;99.90;;;20.49;nan;100325.00;5009961;28;20633;-65
2022/10/23 10:43:50;;;;;;;3.10;2.50;;;19.60;99.90;;;20.43;nan;100312.47;4940336;28;20727;-65
2022/10/23 10:46:32;;;;;;;2.63;2.43;;;19.60;99.90;;;20.52;nan;100303.44;5003107;28;20662;-66
2022/10/23 10:49:07;;;;;;;2.40;2.20;;;19.60;99.90;;;20.67;nan;100293.69;4992320;28;20662;-65
2022/10/23 10:51:39;;;;;;;1.70;1.60;;;19.70;99.90;;;20.62;nan;100290.75;5011198;28;21223;-65
2022/10/23 10:54:44;;;;;;;4.10;1.83;;;19.70;99.90;;;21.11;nan;100278.56;4998755;28;21020;-65
2022/10/23 10:57:26;;;;;;;4.17;2.47;;;19.90;99.90;;;21.09;nan;100280.59;4960998;28;20671;-64
2022/10/23 10:59:57;;;;;;;3.07;2.07;;;20.00;99.90;;;21.41;nan;100272.16;5016781;28;20621;-65
2022/10/23 11:02:34;;;;;;;3.23;1.67;;;20.20;99.90;;;21.67;nan;100278.75;4999586;28;20669;-65
2022/10/23 11:05:22;;;;;;;2.33;1.43;;;20.30;99.90;;;21.59;nan;100291.13;5015613;28;20629;-64